sensor_id;sensor_type;location;lat;lon;timestamp;P1;durP1;ratioP1;P2;durP2;ratioP2
6117;SDS011;3089;48.202;11.510;2023-08-17T00:00:42;7.53;;;4.80;;
6117;SDS011;3089;48.202;11.510;2023-08-17T00:03:10;13.30;;;4.70;;
6117;SDS011;3089;48.202;11.510;2023-08-17T00:05:39;6.57;;;4.37;;
6117;SDS011;3089;48.202;11.510;2023-08-17T00:08:07;5.57;;;3.80;;
6117;SDS011;3089;48.202;11.510;2023-08-17T00:10:36;7.23;;;4.20;;
6117;SDS011;3089;48.202;11.510;2023-08-17T00:13:05;6.80;;;4.17;;
6117;SDS011;3089;48.202;11.510;2023-08-17T00:15:32;6.83;;;4.33;;
6117;SDS011;3089;48.202;11.510;2023-08-17T00:18:00;7.53;;;4.77;;
6117;SDS011;3089;48.202;11.510;2023-08-17T00:20:28;8.40;;;4.60;;
6117;SDS011;3089;48.202;11.510;2023-08-17T00:22:56;6.63;;;4.43;;
6117;SDS011;3089;48.202;11.510;2023-08-17T00:25:24;8.20;;;5.30;;
6117;SDS011;3089;48.202;11.510;2023-08-17T00:27:53;8.73;;;5.20;;
6117;SDS011;3089;48.202;11.510;2023-08-17T00:30:21;7.47;;;4.97;;
6117;SDS011;3089;48.202;11.510;2023-08-17T00:32:49;5.70;;;4.03;;
6117;SDS011;3089;48.202;11.510;2023-08-17T00:35:17;5.70;;;3.93;;
6117;SDS011;3089;48.202;11.510;2023-08-17T00:37:45;8.33;;;5.00;;
6117;SDS011;3089;48.202;11.510;2023-08-17T00:40:12;7.17;;;4.77;;
6117;SDS011;3089;48.202;11.510;2023-08-17T00:42:40;6.17;;;4.27;;
6117;SDS011;3089;48.202;11.510;2023-08-17T00:45:10;6.80;;;4.00;;
6117;SDS011;3089;48.202;11.510;2023-08-17T00:47:38;25.77;;;4.07;;
6117;SDS011;3089;48.202;11.510;2023-08-17T00:50:07;12.30;;;4.73;;
6117;SDS011;3089;48.202;11.510;2023-08-17T00:52:35;7.10;;;4.93;;
6117;SDS011;3089;48.202;11.510;2023-08-17T00:55:03;6.77;;;4.30;;
6117;SDS011;3089;48.202;11.510;2023-08-17T00:57:32;10.10;;;4.50;;
6117;SDS011;3089;48.202;11.510;2023-08-17T01:00:01;8.53;;;4.90;;
6117;SDS011;3089;48.202;11.510;2023-08-17T01:02:33;5.97;;;4.37;;
6117;SDS011;3089;48.202;11.510;2023-08-17T01:05:02;8.40;;;4.77;;
6117;SDS011;3089;48.202;11.510;2023-08-17T01:07:33;17.03;;;5.20;;
6117;SDS011;3089;48.202;11.510;2023-08-17T01:10:04;11.60;;;4.63;;
6117;SDS011;3089;48.202;11.510;2023-08-17T01:12:35;8.60;;;4.30;;
6117;SDS011;3089;48.202;11.510;2023-08-17T01:15:10;6.00;;;3.90;;
6117;SDS011;3089;48.202;11.510;2023-08-17T01:17:44;5.93;;;3.97;;
6117;SDS011;3089;48.202;11.510;2023-08-17T01:20:18;7.60;;;4.50;;
6117;SDS011;3089;48.202;11.510;2023-08-17T01:22:48;9.37;;;4.80;;
6117;SDS011;3089;48.202;11.510;2023-08-17T01:25:18;6.13;;;3.93;;
6117;SDS011;3089;48.202;11.510;2023-08-17T01:27:46;7.60;;;4.37;;
6117;SDS011;3089;48.202;11.510;2023-08-17T01:30:15;6.37;;;4.20;;
6117;SDS011;3089;48.202;11.510;2023-08-17T01:32:47;7.80;;;4.57;;
6117;SDS011;3089;48.202;11.510;2023-08-17T01:35:20;8.30;;;4.60;;
6117;SDS011;3089;48.202;11.510;2023-08-17T01:37:56;6.90;;;4.57;;
6117;SDS011;3089;48.202;11.510;2023-08-17T01:40:28;6.27;;;4.80;;
6117;SDS011;3089;48.202;11.510;2023-08-17T01:42:58;7.13;;;4.20;;
6117;SDS011;3089;48.202;11.510;2023-08-17T01:45:27;8.33;;;5.50;;
6117;SDS011;3089;48.202;11.510;2023-08-17T01:47:55;7.37;;;4.50;;
6117;SDS011;3089;48.202;11.510;2023-08-17T01:50:23;6.60;;;4.60;;
6117;SDS011;3089;48.202;11.510;2023-08-17T01:52:51;7.97;;;4.27;;
6117;SDS011;3089;48.202;11.510;2023-08-17T01:55:20;7.80;;;5.00;;
6117;SDS011;3089;48.202;11.510;2023-08-17T01:57:50;7.50;;;4.50;;
6117;SDS011;3089;48.202;11.510;2023-08-17T02:00:18;7.90;;;5.00;;
6117;SDS011;3089;48.202;11.510;2023-08-17T02:02:46;7.93;;;5.30;;
6117;SDS011;3089;48.202;11.510;2023-08-17T02:05:14;7.40;;;5.00;;
6117;SDS011;3089;48.202;11.510;2023-08-17T02:07:42;8.30;;;5.33;;
6117;SDS011;3089;48.202;11.510;2023-08-17T02:10:10;8.83;;;5.23;;
6117;SDS011;3089;48.202;11.510;2023-08-17T02:12:38;8.70;;;5.47;;
6117;SDS011;3089;48.202;11.510;2023-08-17T02:15:07;8.53;;;4.83;;
6117;SDS011;3089;48.202;11.510;2023-08-17T02:17:36;11.20;;;6.13;;
6117;SDS011;3089;48.202;11.510;2023-08-17T02:20:04;8.87;;;5.07;;
6117;SDS011;3089;48.202;11.510;2023-08-17T02:22:35;9.60;;;5.30;;
6117;SDS011;3089;48.202;11.510;2023-08-17T02:25:03;8.27;;;5.37;;
6117;SDS011;3089;48.202;11.510;2023-08-17T02:27:32;9.67;;;4.90;;
6117;SDS011;3089;48.202;11.510;2023-08-17T02:29:59;10.20;;;5.10;;
6117;SDS011;3089;48.202;11.510;2023-08-17T02:32:28;9.50;;;5.10;;
6117;SDS011;3089;48.202;11.510;2023-08-17T02:34:56;7.50;;;4.93;;
6117;SDS011;3089;48.202;11.510;2023-08-17T02:37:24;8.30;;;5.17;;
6117;SDS011;3089;48.202;11.510;2023-08-17T02:39:53;7.97;;;4.80;;
6117;SDS011;3089;48.202;11.510;2023-08-17T02:42:20;10.47;;;4.77;;
6117;SDS011;3089;48.202;11.510;2023-08-17T02:44:48;13.00;;;6.13;;
6117;SDS011;3089;48.202;11.510;2023-08-17T02:47:16;18.83;;;6.23;;
6117;SDS011;3089;48.202;11.510;2023-08-17T02:49:45;9.17;;;4.83;;
6117;SDS011;3089;48.202;11.510;2023-08-17T02:52:15;16.73;;;5.27;;
6117;SDS011;3089;48.202;11.510;2023-08-17T02:54:43;7.70;;;5.20;;
6117;SDS011;3089;48.202;11.510;2023-08-17T02:57:11;8.80;;;4.97;;
6117;SDS011;3089;48.202;11.510;2023-08-17T02:59:39;8.70;;;4.90;;
6117;SDS011;3089;48.202;11.510;2023-08-17T03:02:07;7.20;;;4.90;;
6117;SDS011;3089;48.202;11.510;2023-08-17T03:04:35;7.70;;;4.80;;
6117;SDS011;3089;48.202;11.510;2023-08-17T03:07:04;8.00;;;4.63;;
6117;SDS011;3089;48.202;11.510;2023-08-17T03:09:32;7.00;;;4.70;;
6117;SDS011;3089;48.202;11.510;2023-08-17T03:12:00;7.57;;;5.10;;
6117;SDS011;3089;48.202;11.510;2023-08-17T03:14:27;7.50;;;4.93;;
6117;SDS011;3089;48.202;11.510;2023-08-17T03:16:55;7.73;;;5.07;;
6117;SDS011;3089;48.202;11.510;2023-08-17T03:19:23;9.30;;;5.07;;
6117;SDS011;3089;48.202;11.510;2023-08-17T03:21:51;10.60;;;5.30;;
6117;SDS011;3089;48.202;11.510;2023-08-17T03:24:20;8.63;;;5.30;;
6117;SDS011;3089;48.202;11.510;2023-08-17T03:26:48;11.93;;;5.43;;
6117;SDS011;3089;48.202;11.510;2023-08-17T03:29:16;9.87;;;5.73;;
6117;SDS011;3089;48.202;11.510;2023-08-17T03:31:44;6.70;;;4.57;;
6117;SDS011;3089;48.202;11.510;2023-08-17T03:34:12;13.93;;;5.60;;
6117;SDS011;3089;48.202;11.510;2023-08-17T03:36:40;9.57;;;5.80;;
6117;SDS011;3089;48.202;11.510;2023-08-17T03:39:07;8.33;;;5.60;;
6117;SDS011;3089;48.202;11.510;2023-08-17T03:41:37;7.13;;;4.70;;
6117;SDS011;3089;48.202;11.510;2023-08-17T03:44:05;7.20;;;4.87;;
6117;SDS011;3089;48.202;11.510;2023-08-17T03:46:33;8.10;;;6.23;;
6117;SDS011;3089;48.202;11.510;2023-08-17T03:49:01;11.63;;;5.73;;
6117;SDS011;3089;48.202;11.510;2023-08-17T03:51:29;11.67;;;5.40;;
6117;SDS011;3089;48.202;11.510;2023-08-17T03:53:57;7.77;;;5.20;;
6117;SDS011;3089;48.202;11.510;2023-08-17T03:56:25;8.87;;;5.80;;
6117;SDS011;3089;48.202;11.510;2023-08-17T03:58:54;9.97;;;6.40;;
6117;SDS011;3089;48.202;11.510;2023-08-17T04:01:22;9.03;;;5.50;;
6117;SDS011;3089;48.202;11.510;2023-08-17T04:03:50;9.13;;;5.03;;
6117;SDS011;3089;48.202;11.510;2023-08-17T04:06:17;10.40;;;5.63;;
6117;SDS011;3089;48.202;11.510;2023-08-17T04:08:45;9.37;;;5.30;;
6117;SDS011;3089;48.202;11.510;2023-08-17T04:11:13;11.10;;;4.70;;
6117;SDS011;3089;48.202;11.510;2023-08-17T04:13:41;7.37;;;5.03;;
6117;SDS011;3089;48.202;11.510;2023-08-17T04:16:10;8.33;;;5.33;;
6117;SDS011;3089;48.202;11.510;2023-08-17T04:18:38;10.90;;;6.13;;
6117;SDS011;3089;48.202;11.510;2023-08-17T04:21:06;7.93;;;5.00;;
6117;SDS011;3089;48.202;11.510;2023-08-17T04:23:34;10.67;;;5.80;;
6117;SDS011;3089;48.202;11.510;2023-08-17T04:26:01;7.50;;;5.00;;
6117;SDS011;3089;48.202;11.510;2023-08-17T04:28:29;10.47;;;5.57;;
6117;SDS011;3089;48.202;11.510;2023-08-17T04:30:57;9.87;;;5.87;;
6117;SDS011;3089;48.202;11.510;2023-08-17T04:33:26;12.73;;;6.50;;
6117;SDS011;3089;48.202;11.510;2023-08-17T04:35:54;9.50;;;5.77;;
6117;SDS011;3089;48.202;11.510;2023-08-17T04:38:22;15.37;;;6.20;;
6117;SDS011;3089;48.202;11.510;2023-08-17T04:40:50;10.20;;;6.30;;
6117;SDS011;3089;48.202;11.510;2023-08-17T04:43:18;7.27;;;5.40;;
6117;SDS011;3089;48.202;11.510;2023-08-17T04:45:45;9.80;;;5.40;;
6117;SDS011;3089;48.202;11.510;2023-08-17T04:48:14;7.40;;;5.10;;
6117;SDS011;3089;48.202;11.510;2023-08-17T04:50:43;8.60;;;6.10;;
6117;SDS011;3089;48.202;11.510;2023-08-17T04:53:11;11.30;;;6.77;;
6117;SDS011;3089;48.202;11.510;2023-08-17T04:55:39;7.80;;;5.40;;
6117;SDS011;3089;48.202;11.510;2023-08-17T04:58:07;10.47;;;5.90;;
6117;SDS011;3089;48.202;11.510;2023-08-17T05:00:35;8.23;;;6.37;;
6117;SDS011;3089;48.202;11.510;2023-08-17T05:03:04;9.97;;;6.83;;
6117;SDS011;3089;48.202;11.510;2023-08-17T05:05:37;13.20;;;5.70;;
6117;SDS011;3089;48.202;11.510;2023-08-17T05:08:06;10.80;;;6.70;;
6117;SDS011;3089;48.202;11.510;2023-08-17T05:10:34;17.20;;;6.70;;
6117;SDS011;3089;48.202;11.510;2023-08-17T05:13:01;11.03;;;6.53;;
6117;SDS011;3089;48.202;11.510;2023-08-17T05:15:29;10.33;;;6.30;;
6117;SDS011;3089;48.202;11.510;2023-08-17T05:17:57;9.80;;;6.10;;
6117;SDS011;3089;48.202;11.510;2023-08-17T05:20:25;9.27;;;6.90;;
6117;SDS011;3089;48.202;11.510;2023-08-17T05:22:53;9.13;;;5.87;;
6117;SDS011;3089;48.202;11.510;2023-08-17T05:25:22;11.70;;;6.50;;
6117;SDS011;3089;48.202;11.510;2023-08-17T05:27:52;8.53;;;6.10;;
6117;SDS011;3089;48.202;11.510;2023-08-17T05:30:20;10.37;;;6.47;;
6117;SDS011;3089;48.202;11.510;2023-08-17T05:32:48;13.83;;;6.23;;
6117;SDS011;3089;48.202;11.510;2023-08-17T05:35:16;10.67;;;6.03;;
6117;SDS011;3089;48.202;11.510;2023-08-17T05:37:44;9.03;;;5.20;;
6117;SDS011;3089;48.202;11.510;2023-08-17T05:40:12;14.63;;;6.10;;
6117;SDS011;3089;48.202;11.510;2023-08-17T05:42:41;9.40;;;6.50;;
6117;SDS011;3089;48.202;11.510;2023-08-17T05:45:09;18.13;;;5.47;;
6117;SDS011;3089;48.202;11.510;2023-08-17T05:47:37;9.20;;;5.90;;
6117;SDS011;3089;48.202;11.510;2023-08-17T05:50:06;8.80;;;5.13;;
6117;SDS011;3089;48.202;11.510;2023-08-17T05:52:34;12.73;;;6.17;;
6117;SDS011;3089;48.202;11.510;2023-08-17T05:55:02;10.63;;;5.73;;
6117;SDS011;3089;48.202;11.510;2023-08-17T05:57:30;12.17;;;6.77;;
6117;SDS011;3089;48.202;11.510;2023-08-17T06:00:00;9.90;;;5.63;;
6117;SDS011;3089;48.202;11.510;2023-08-17T06:02:28;10.40;;;6.10;;
6117;SDS011;3089;48.202;11.510;2023-08-17T06:04:56;10.80;;;6.20;;
6117;SDS011;3089;48.202;11.510;2023-08-17T06:07:24;9.90;;;5.90;;
6117;SDS011;3089;48.202;11.510;2023-08-17T06:09:52;10.87;;;6.13;;
6117;SDS011;3089;48.202;11.510;2023-08-17T06:12:20;10.53;;;5.90;;
6117;SDS011;3089;48.202;11.510;2023-08-17T06:14:48;14.37;;;5.87;;
6117;SDS011;3089;48.202;11.510;2023-08-17T06:17:17;9.77;;;5.20;;
6117;SDS011;3089;48.202;11.510;2023-08-17T06:19:45;9.53;;;5.43;;
6117;SDS011;3089;48.202;11.510;2023-08-17T06:22:13;8.63;;;6.00;;
6117;SDS011;3089;48.202;11.510;2023-08-17T06:24:41;16.93;;;5.90;;
6117;SDS011;3089;48.202;11.510;2023-08-17T06:27:09;9.67;;;5.97;;
6117;SDS011;3089;48.202;11.510;2023-08-17T06:29:36;8.00;;;5.50;;
6117;SDS011;3089;48.202;11.510;2023-08-17T06:32:04;7.10;;;5.60;;
6117;SDS011;3089;48.202;11.510;2023-08-17T06:34:34;7.70;;;5.53;;
6117;SDS011;3089;48.202;11.510;2023-08-17T06:37:03;8.20;;;5.63;;
6117;SDS011;3089;48.202;11.510;2023-08-17T06:39:31;8.73;;;5.07;;
6117;SDS011;3089;48.202;11.510;2023-08-17T06:41:59;8.43;;;4.87;;
6117;SDS011;3089;48.202;11.510;2023-08-17T06:44:27;7.23;;;4.57;;
6117;SDS011;3089;48.202;11.510;2023-08-17T06:46:55;9.57;;;4.70;;
6117;SDS011;3089;48.202;11.510;2023-08-17T06:49:23;7.90;;;5.20;;
6117;SDS011;3089;48.202;11.510;2023-08-17T06:51:52;8.67;;;5.10;;
6117;SDS011;3089;48.202;11.510;2023-08-17T06:54:20;13.53;;;5.47;;
6117;SDS011;3089;48.202;11.510;2023-08-17T06:56:48;7.80;;;4.70;;
6117;SDS011;3089;48.202;11.510;2023-08-17T06:59:15;12.37;;;5.27;;
6117;SDS011;3089;48.202;11.510;2023-08-17T07:01:44;9.50;;;6.07;;
6117;SDS011;3089;48.202;11.510;2023-08-17T07:04:12;8.87;;;5.37;;
6117;SDS011;3089;48.202;11.510;2023-08-17T07:06:40;13.20;;;5.33;;
6117;SDS011;3089;48.202;11.510;2023-08-17T07:09:11;11.23;;;4.80;;
6117;SDS011;3089;48.202;11.510;2023-08-17T07:11:39;8.80;;;4.90;;
6117;SDS011;3089;48.202;11.510;2023-08-17T07:14:07;8.57;;;5.60;;
6117;SDS011;3089;48.202;11.510;2023-08-17T07:16:35;7.80;;;4.77;;
6117;SDS011;3089;48.202;11.510;2023-08-17T07:19:03;9.80;;;5.03;;
6117;SDS011;3089;48.202;11.510;2023-08-17T07:21:31;13.40;;;4.50;;
6117;SDS011;3089;48.202;11.510;2023-08-17T07:24:08;7.57;;;4.80;;
6117;SDS011;3089;48.202;11.510;2023-08-17T07:26:40;7.40;;;4.80;;
6117;SDS011;3089;48.202;11.510;2023-08-17T07:29:08;8.93;;;4.87;;
6117;SDS011;3089;48.202;11.510;2023-08-17T07:31:37;6.47;;;4.47;;
6117;SDS011;3089;48.202;11.510;2023-08-17T07:34:09;7.73;;;5.00;;
6117;SDS011;3089;48.202;11.510;2023-08-17T07:36:37;7.70;;;5.33;;
6117;SDS011;3089;48.202;11.510;2023-08-17T07:39:05;7.20;;;4.70;;
6117;SDS011;3089;48.202;11.510;2023-08-17T07:41:34;6.83;;;4.43;;
6117;SDS011;3089;48.202;11.510;2023-08-17T07:44:02;7.20;;;5.20;;
6117;SDS011;3089;48.202;11.510;2023-08-17T07:46:31;7.80;;;4.90;;
6117;SDS011;3089;48.202;11.510;2023-08-17T07:48:58;7.70;;;4.57;;
6117;SDS011;3089;48.202;11.510;2023-08-17T07:51:26;6.30;;;4.67;;
6117;SDS011;3089;48.202;11.510;2023-08-17T07:53:56;10.60;;;5.40;;
6117;SDS011;3089;48.202;11.510;2023-08-17T07:56:24;7.67;;;5.27;;
6117;SDS011;3089;48.202;11.510;2023-08-17T07:58:54;7.77;;;5.27;;
6117;SDS011;3089;48.202;11.510;2023-08-17T08:01:22;7.70;;;4.60;;
6117;SDS011;3089;48.202;11.510;2023-08-17T08:03:50;10.60;;;5.40;;
6117;SDS011;3089;48.202;11.510;2023-08-17T08:06:18;8.63;;;5.20;;
6117;SDS011;3089;48.202;11.510;2023-08-17T08:08:47;6.07;;;4.57;;
6117;SDS011;3089;48.202;11.510;2023-08-17T08:11:15;8.60;;;5.57;;
6117;SDS011;3089;48.202;11.510;2023-08-17T08:13:43;10.60;;;5.23;;
6117;SDS011;3089;48.202;11.510;2023-08-17T08:16:12;11.13;;;5.00;;
6117;SDS011;3089;48.202;11.510;2023-08-17T08:18:40;9.63;;;5.57;;
6117;SDS011;3089;48.202;11.510;2023-08-17T08:21:08;6.70;;;4.70;;
6117;SDS011;3089;48.202;11.510;2023-08-17T08:23:36;7.53;;;5.30;;
6117;SDS011;3089;48.202;11.510;2023-08-17T08:26:04;7.70;;;4.93;;
6117;SDS011;3089;48.202;11.510;2023-08-17T08:28:32;10.27;;;5.07;;
6117;SDS011;3089;48.202;11.510;2023-08-17T08:31:01;9.03;;;5.60;;
6117;SDS011;3089;48.202;11.510;2023-08-17T08:33:30;8.10;;;4.97;;
6117;SDS011;3089;48.202;11.510;2023-08-17T08:35:58;6.77;;;4.40;;
6117;SDS011;3089;48.202;11.510;2023-08-17T08:38:26;10.00;;;6.33;;
6117;SDS011;3089;48.202;11.510;2023-08-17T08:40:55;11.60;;;5.97;;
6117;SDS011;3089;48.202;11.510;2023-08-17T08:43:23;6.60;;;5.00;;
6117;SDS011;3089;48.202;11.510;2023-08-17T08:45:51;11.40;;;4.93;;
6117;SDS011;3089;48.202;11.510;2023-08-17T08:48:20;7.10;;;5.00;;
6117;SDS011;3089;48.202;11.510;2023-08-17T08:50:51;6.50;;;5.30;;
6117;SDS011;3089;48.202;11.510;2023-08-17T08:53:24;7.73;;;5.13;;
6117;SDS011;3089;48.202;11.510;2023-08-17T08:56:01;9.47;;;6.10;;
6117;SDS011;3089;48.202;11.510;2023-08-17T08:58:31;8.00;;;5.43;;
6117;SDS011;3089;48.202;11.510;2023-08-17T09:01:02;8.30;;;5.53;;
6117;SDS011;3089;48.202;11.510;2023-08-17T09:03:34;8.90;;;5.40;;
6117;SDS011;3089;48.202;11.510;2023-08-17T09:06:04;6.53;;;4.60;;
6117;SDS011;3089;48.202;11.510;2023-08-17T09:08:33;12.33;;;5.50;;
6117;SDS011;3089;48.202;11.510;2023-08-17T09:11:01;7.63;;;5.40;;
6117;SDS011;3089;48.202;11.510;2023-08-17T09:13:29;6.93;;;5.50;;
6117;SDS011;3089;48.202;11.510;2023-08-17T09:15:57;7.63;;;5.00;;
6117;SDS011;3089;48.202;11.510;2023-08-17T09:18:32;7.77;;;4.83;;
6117;SDS011;3089;48.202;11.510;2023-08-17T09:21:06;7.50;;;4.50;;
6117;SDS011;3089;48.202;11.510;2023-08-17T09:23:34;8.20;;;5.30;;
6117;SDS011;3089;48.202;11.510;2023-08-17T09:26:05;7.87;;;4.80;;
6117;SDS011;3089;48.202;11.510;2023-08-17T09:28:38;9.53;;;5.23;;
6117;SDS011;3089;48.202;11.510;2023-08-17T09:31:06;8.50;;;5.13;;
6117;SDS011;3089;48.202;11.510;2023-08-17T09:33:34;8.30;;;5.30;;
6117;SDS011;3089;48.202;11.510;2023-08-17T09:36:02;10.20;;;5.50;;
6117;SDS011;3089;48.202;11.510;2023-08-17T09:38:32;10.43;;;5.97;;
6117;SDS011;3089;48.202;11.510;2023-08-17T09:40:59;10.10;;;5.57;;
6117;SDS011;3089;48.202;11.510;2023-08-17T09:43:28;7.53;;;6.03;;
6117;SDS011;3089;48.202;11.510;2023-08-17T09:46:00;9.70;;;6.07;;
6117;SDS011;3089;48.202;11.510;2023-08-17T09:48:29;9.93;;;6.20;;
6117;SDS011;3089;48.202;11.510;2023-08-17T09:50:59;7.50;;;4.67;;
6117;SDS011;3089;48.202;11.510;2023-08-17T09:53:28;12.20;;;6.37;;
6117;SDS011;3089;48.202;11.510;2023-08-17T09:55:57;8.40;;;5.40;;
6117;SDS011;3089;48.202;11.510;2023-08-17T09:58:27;7.87;;;5.33;;
6117;SDS011;3089;48.202;11.510;2023-08-17T10:00:57;9.80;;;5.10;;
6117;SDS011;3089;48.202;11.510;2023-08-17T10:03:25;7.70;;;5.63;;
6117;SDS011;3089;48.202;11.510;2023-08-17T10:05:57;9.50;;;5.30;;
6117;SDS011;3089;48.202;11.510;2023-08-17T10:08:28;10.40;;;5.47;;
6117;SDS011;3089;48.202;11.510;2023-08-17T10:10:59;8.60;;;5.10;;
6117;SDS011;3089;48.202;11.510;2023-08-17T10:13:34;10.60;;;5.20;;
6117;SDS011;3089;48.202;11.510;2023-08-17T10:16:07;8.60;;;4.50;;
6117;SDS011;3089;48.202;11.510;2023-08-17T10:18:44;8.83;;;5.63;;
6117;SDS011;3089;48.202;11.510;2023-08-17T10:21:21;11.30;;;5.27;;
6117;SDS011;3089;48.202;11.510;2023-08-17T10:23:55;6.70;;;5.23;;
6117;SDS011;3089;48.202;11.510;2023-08-17T10:26:25;9.37;;;5.33;;
6117;SDS011;3089;48.202;11.510;2023-08-17T10:28:53;7.83;;;5.10;;
6117;SDS011;3089;48.202;11.510;2023-08-17T10:31:29;11.90;;;4.90;;
6117;SDS011;3089;48.202;11.510;2023-08-17T10:34:01;6.80;;;4.40;;
6117;SDS011;3089;48.202;11.510;2023-08-17T10:36:30;7.27;;;4.97;;
6117;SDS011;3089;48.202;11.510;2023-08-17T10:39:17;8.70;;;5.50;;
6117;SDS011;3089;48.202;11.510;2023-08-17T10:41:50;7.17;;;4.83;;
6117;SDS011;3089;48.202;11.510;2023-08-17T10:44:37;10.73;;;4.90;;
6117;SDS011;3089;48.202;11.510;2023-08-17T10:47:20;10.00;;;4.80;;
6117;SDS011;3089;48.202;11.510;2023-08-17T10:49:49;8.90;;;5.03;;
6117;SDS011;3089;48.202;11.510;2023-08-17T10:52:27;8.70;;;5.63;;
6117;SDS011;3089;48.202;11.510;2023-08-17T10:54:58;8.30;;;5.40;;
6117;SDS011;3089;48.202;11.510;2023-08-17T10:57:29;8.80;;;4.90;;
6117;SDS011;3089;48.202;11.510;2023-08-17T11:02:55;10.93;;;5.73;;
6117;SDS011;3089;48.202;11.510;2023-08-17T11:05:35;12.00;;;5.20;;
6117;SDS011;3089;48.202;11.510;2023-08-17T11:08:07;11.50;;;5.93;;
6117;SDS011;3089;48.202;11.510;2023-08-17T11:10:37;7.43;;;5.20;;
6117;SDS011;3089;48.202;11.510;2023-08-17T11:13:06;8.40;;;4.90;;
6117;SDS011;3089;48.202;11.510;2023-08-17T11:15:35;9.27;;;5.20;;
6117;SDS011;3089;48.202;11.510;2023-08-17T11:18:09;7.23;;;4.97;;
6117;SDS011;3089;48.202;11.510;2023-08-17T11:20:38;9.13;;;5.00;;
6117;SDS011;3089;48.202;11.510;2023-08-17T11:23:07;11.20;;;5.00;;
6117;SDS011;3089;48.202;11.510;2023-08-17T11:25:36;6.57;;;4.93;;
6117;SDS011;3089;48.202;11.510;2023-08-17T11:28:07;6.63;;;5.17;;
6117;SDS011;3089;48.202;11.510;2023-08-17T11:30:36;7.37;;;4.20;;
6117;SDS011;3089;48.202;11.510;2023-08-17T11:33:05;9.73;;;5.30;;
6117;SDS011;3089;48.202;11.510;2023-08-17T11:35:34;10.83;;;5.23;;
6117;SDS011;3089;48.202;11.510;2023-08-17T11:38:02;6.43;;;4.80;;
6117;SDS011;3089;48.202;11.510;2023-08-17T11:40:34;7.80;;;4.63;;
6117;SDS011;3089;48.202;11.510;2023-08-17T11:43:02;7.17;;;4.73;;
6117;SDS011;3089;48.202;11.510;2023-08-17T11:45:32;7.33;;;5.37;;
6117;SDS011;3089;48.202;11.510;2023-08-17T11:48:00;7.90;;;5.23;;
6117;SDS011;3089;48.202;11.510;2023-08-17T11:50:29;9.60;;;5.00;;
6117;SDS011;3089;48.202;11.510;2023-08-17T11:52:58;10.33;;;4.93;;
6117;SDS011;3089;48.202;11.510;2023-08-17T11:55:26;6.80;;;4.87;;
6117;SDS011;3089;48.202;11.510;2023-08-17T11:57:55;11.07;;;5.43;;
6117;SDS011;3089;48.202;11.510;2023-08-17T12:00:23;7.17;;;5.40;;
6117;SDS011;3089;48.202;11.510;2023-08-17T12:02:53;6.93;;;4.27;;
6117;SDS011;3089;48.202;11.510;2023-08-17T12:05:21;6.20;;;4.60;;
6117;SDS011;3089;48.202;11.510;2023-08-17T12:07:52;7.00;;;4.37;;
6117;SDS011;3089;48.202;11.510;2023-08-17T12:10:20;7.00;;;4.83;;
6117;SDS011;3089;48.202;11.510;2023-08-17T12:12:49;5.93;;;3.73;;
6117;SDS011;3089;48.202;11.510;2023-08-17T12:15:17;10.57;;;4.87;;
6117;SDS011;3089;48.202;11.510;2023-08-17T12:17:45;8.03;;;4.57;;
6117;SDS011;3089;48.202;11.510;2023-08-17T12:20:16;8.60;;;4.80;;
6117;SDS011;3089;48.202;11.510;2023-08-17T12:22:45;6.17;;;4.60;;
6117;SDS011;3089;48.202;11.510;2023-08-17T12:25:13;6.07;;;4.30;;
6117;SDS011;3089;48.202;11.510;2023-08-17T12:27:42;6.03;;;4.27;;
6117;SDS011;3089;48.202;11.510;2023-08-17T12:30:13;5.73;;;4.53;;
6117;SDS011;3089;48.202;11.510;2023-08-17T12:32:52;6.60;;;4.17;;
6117;SDS011;3089;48.202;11.510;2023-08-17T12:35:25;8.53;;;4.30;;
6117;SDS011;3089;48.202;11.510;2023-08-17T12:37:53;7.20;;;3.93;;
6117;SDS011;3089;48.202;11.510;2023-08-17T12:40:21;5.60;;;3.70;;
6117;SDS011;3089;48.202;11.510;2023-08-17T12:42:50;9.03;;;4.60;;
6117;SDS011;3089;48.202;11.510;2023-08-17T12:45:18;7.87;;;3.60;;
6117;SDS011;3089;48.202;11.510;2023-08-17T12:47:46;5.60;;;3.90;;
6117;SDS011;3089;48.202;11.510;2023-08-17T12:50:14;6.20;;;4.30;;
6117;SDS011;3089;48.202;11.510;2023-08-17T12:52:45;7.27;;;3.50;;
6117;SDS011;3089;48.202;11.510;2023-08-17T12:55:13;7.53;;;3.87;;
6117;SDS011;3089;48.202;11.510;2023-08-17T12:57:40;10.13;;;4.17;;
6117;SDS011;3089;48.202;11.510;2023-08-17T13:00:09;9.60;;;4.07;;
6117;SDS011;3089;48.202;11.510;2023-08-17T13:02:37;7.40;;;3.57;;
6117;SDS011;3089;48.202;11.510;2023-08-17T13:05:05;6.03;;;3.80;;
6117;SDS011;3089;48.202;11.510;2023-08-17T13:07:33;4.63;;;3.47;;
6117;SDS011;3089;48.202;11.510;2023-08-17T13:10:03;5.93;;;3.90;;
6117;SDS011;3089;48.202;11.510;2023-08-17T13:12:31;5.80;;;4.13;;
6117;SDS011;3089;48.202;11.510;2023-08-17T13:14:59;7.33;;;4.33;;
6117;SDS011;3089;48.202;11.510;2023-08-17T13:17:27;7.77;;;4.30;;
6117;SDS011;3089;48.202;11.510;2023-08-17T13:19:55;5.90;;;4.30;;
6117;SDS011;3089;48.202;11.510;2023-08-17T13:22:23;6.80;;;4.30;;
6117;SDS011;3089;48.202;11.510;2023-08-17T13:24:51;5.73;;;3.60;;
6117;SDS011;3089;48.202;11.510;2023-08-17T13:27:20;6.23;;;3.70;;
6117;SDS011;3089;48.202;11.510;2023-08-17T13:29:48;4.83;;;3.40;;
6117;SDS011;3089;48.202;11.510;2023-08-17T13:32:16;5.10;;;3.73;;
6117;SDS011;3089;48.202;11.510;2023-08-17T13:34:44;4.67;;;3.40;;
6117;SDS011;3089;48.202;11.510;2023-08-17T13:37:11;6.97;;;3.77;;
6117;SDS011;3089;48.202;11.510;2023-08-17T13:39:39;4.60;;;3.00;;
6117;SDS011;3089;48.202;11.510;2023-08-17T13:42:07;5.90;;;3.30;;
6117;SDS011;3089;48.202;11.510;2023-08-17T13:44:36;6.13;;;3.33;;
6117;SDS011;3089;48.202;11.510;2023-08-17T13:47:04;8.60;;;4.20;;
6117;SDS011;3089;48.202;11.510;2023-08-17T13:49:32;5.50;;;3.73;;
6117;SDS011;3089;48.202;11.510;2023-08-17T13:52:00;5.83;;;3.30;;
6117;SDS011;3089;48.202;11.510;2023-08-17T13:54:28;11.20;;;4.37;;
6117;SDS011;3089;48.202;11.510;2023-08-17T13:56:56;5.73;;;3.63;;
6117;SDS011;3089;48.202;11.510;2023-08-17T13:59:24;5.70;;;4.00;;
6117;SDS011;3089;48.202;11.510;2023-08-17T14:01:53;6.00;;;4.00;;
6117;SDS011;3089;48.202;11.510;2023-08-17T14:04:22;5.80;;;4.20;;
6117;SDS011;3089;48.202;11.510;2023-08-17T14:06:49;6.57;;;4.43;;
6117;SDS011;3089;48.202;11.510;2023-08-17T14:09:18;11.10;;;4.30;;
6117;SDS011;3089;48.202;11.510;2023-08-17T14:11:46;5.67;;;3.87;;
6117;SDS011;3089;48.202;11.510;2023-08-17T14:14:14;6.40;;;4.47;;
6117;SDS011;3089;48.202;11.510;2023-08-17T14:16:42;7.00;;;4.63;;
6117;SDS011;3089;48.202;11.510;2023-08-17T14:19:11;9.13;;;4.97;;
6117;SDS011;3089;48.202;11.510;2023-08-17T14:21:39;6.60;;;5.57;;
6117;SDS011;3089;48.202;11.510;2023-08-17T14:24:07;9.70;;;5.80;;
6117;SDS011;3089;48.202;11.510;2023-08-17T14:26:35;7.53;;;5.30;;
6117;SDS011;3089;48.202;11.510;2023-08-17T14:29:03;7.73;;;5.50;;
6117;SDS011;3089;48.202;11.510;2023-08-17T14:31:31;7.00;;;5.00;;
6117;SDS011;3089;48.202;11.510;2023-08-17T14:33:59;7.07;;;5.60;;
6117;SDS011;3089;48.202;11.510;2023-08-17T14:36:33;7.03;;;5.90;;
6117;SDS011;3089;48.202;11.510;2023-08-17T14:39:00;7.60;;;5.50;;
6117;SDS011;3089;48.202;11.510;2023-08-17T14:41:28;8.20;;;5.00;;
6117;SDS011;3089;48.202;11.510;2023-08-17T14:43:58;8.23;;;5.80;;
6117;SDS011;3089;48.202;11.510;2023-08-17T14:46:28;8.73;;;6.23;;
6117;SDS011;3089;48.202;11.510;2023-08-17T14:48:57;7.10;;;5.33;;
6117;SDS011;3089;48.202;11.510;2023-08-17T14:51:24;8.40;;;5.40;;
6117;SDS011;3089;48.202;11.510;2023-08-17T14:53:56;7.43;;;5.90;;
6117;SDS011;3089;48.202;11.510;2023-08-17T14:56:24;10.70;;;6.17;;
6117;SDS011;3089;48.202;11.510;2023-08-17T14:58:52;8.43;;;5.70;;
6117;SDS011;3089;48.202;11.510;2023-08-17T15:01:20;8.77;;;5.70;;
6117;SDS011;3089;48.202;11.510;2023-08-17T15:03:48;7.60;;;5.77;;
6117;SDS011;3089;48.202;11.510;2023-08-17T15:06:16;6.80;;;5.83;;
6117;SDS011;3089;48.202;11.510;2023-08-17T15:09:01;6.90;;;5.37;;
6117;SDS011;3089;48.202;11.510;2023-08-17T15:11:29;6.93;;;5.90;;